Time;durP1;ratioP1;P1;durP2;ratioP2;P2;SDS_P1;SDS_P2;PMS_P1;PMS_P2;Temp;Humidity;BMP_temperature;BMP_pressure;BME280_temperature;BME280_humidity;BME280_pressure;Samples;Min_cycle;Max_cycle;Signal;HPM_P1;HPM_P2
2021/07/29 00:00:59;;;;;;;12.37;10.00;;;;;;;23.79;65.91;99823.73;1664852;85;21667;-82
2021/07/29 00:03:25;;;;;;;14.47;10.30;;;;;;;23.67;66.00;99821.39;1646840;85;21604;-81
2021/07/29 00:05:51;;;;;;;11.45;9.93;;;;;;;23.56;66.42;99820.67;1664774;85;21003;-81
2021/07/29 00:08:19;;;;;;;12.07;9.40;;;;;;;23.51;66.60;99822.91;1649254;85;21413;-81
2021/07/29 00:10:47;;;;;;;18.23;11.48;;;;;;;23.46;66.89;99824.86;1658245;85;21085;-81
2021/07/29 00:13:15;;;;;;;11.63;10.30;;;;;;;23.33;67.22;99823.06;1656781;85;21560;-81
2021/07/29 00:15:43;;;;;;;10.08;9.18;;;;;;;23.29;67.60;99822.57;1661626;85;21035;-81
2021/07/29 00:20:39;;;;;;;10.65;9.55;;;;;;;23.28;67.88;99829.92;1649811;85;21633;-81
2021/07/29 00:23:05;;;;;;;11.00;10.20;;;;;;;23.30;67.96;99841.84;1646563;85;21513;-81
2021/07/29 00:25:31;;;;;;;16.75;11.20;;;;;;;23.29;68.09;99848.41;1650066;85;21096;-80
2021/07/29 00:27:58;;;;;;;14.60;10.93;;;;;;;23.21;68.49;99848.47;1647348;85;21059;-81
2021/07/29 00:30:26;;;;;;;11.68;10.63;;;;;;;23.12;69.00;99855.05;1641461;85;21112;-80
2021/07/29 00:32:55;;;;;;;11.75;9.98;;;;;;;23.05;69.38;99852.39;1627896;86;21080;-81
2021/07/29 00:35:22;;;;;;;13.30;9.95;;;;;;;23.08;69.39;99851.84;1642355;85;21138;-82
2021/07/29 00:37:52;;;;;;;14.98;10.10;;;;;;;23.04;69.41;99846.16;1644375;85;21119;-81
2021/07/29 00:40:20;;;;;;;13.90;11.00;;;;;;;23.02;69.86;99840.69;1650452;84;21082;-82
2021/07/29 00:42:46;;;;;;;15.50;10.72;;;;;;;22.97;70.17;99844.82;1658198;84;21512;-82
2021/07/29 00:45:14;;;;;;;13.90;12.35;;;;;;;22.92;70.43;99844.30;1670696;84;21119;-79
2021/07/29 00:47:43;;;;;;;12.25;11.00;;;;;;;22.89;70.84;99847.59;1661583;85;21045;-81
2021/07/29 00:50:12;;;;;;;18.17;11.45;;;;;;;22.89;70.90;99845.68;1656548;84;21174;-82
2021/07/29 00:52:39;;;;;;;12.65;11.15;;;;;;;22.93;70.88;99840.50;1657253;84;21028;-82
2021/07/29 00:55:08;;;;;;;20.05;11.60;;;;;;;22.95;70.85;99836.94;1651561;84;21649;-81
2021/07/29 00:57:34;;;;;;;15.30;12.65;;;;;;;22.96;70.79;99830.95;1649246;85;21003;-78
2021/07/29 01:00:02;;;;;;;15.63;11.83;;;;;;;22.96;70.75;99831.76;1666701;84;21028;-80
2021/07/29 01:02:28;;;;;;;16.32;12.18;;;;;;;22.94;71.20;99831.23;1653574;84;21066;-81
2021/07/29 01:04:55;;;;;;;13.60;11.78;;;;;;;22.96;71.48;99835.84;1669437;84;21004;-81
2021/07/29 01:07:21;;;;;;;15.85;12.50;;;;;;;23.06;71.36;99839.88;1684145;84;21074;-81
2021/07/29 01:09:48;;;;;;;15.72;12.18;;;;;;;23.26;70.30;99843.52;1665974;84;21128;-81
2021/07/29 01:12:14;;;;;;;15.43;11.48;;;;;;;23.30;69.80;99844.57;1666189;84;20995;-83
2021/07/29 01:14:45;;;;;;;14.85;11.38;;;;;;;23.30;70.19;99837.77;1655407;84;21087;-83
2021/07/29 01:17:11;;;;;;;14.47;10.88;;;;;;;23.36;70.40;99839.38;1651062;85;21055;-80
2021/07/29 01:19:37;;;;;;;16.07;11.38;;;;;;;23.52;69.61;99842.19;1668356;84;21095;-81
2021/07/29 01:22:04;;;;;;;19.23;11.78;;;;;;;23.62;68.66;99839.95;1646837;85;20995;-80
2021/07/29 01:24:31;;;;;;;14.43;11.10;;;;;;;23.57;68.75;99836.47;1665375;84;21048;-83
2021/07/29 01:26:57;;;;;;;12.07;10.23;;;;;;;23.48;69.07;99832.19;1657344;84;21078;-85
2021/07/29 01:29:24;;;;;;;13.05;11.70;;;;;;;23.41;69.44;99839.30;1662220;84;21043;-82
2021/07/29 01:31:50;;;;;;;13.32;10.63;;;;;;;23.37;69.80;99838.26;1659416;84;21076;-85
2021/07/29 01:34:17;;;;;;;14.40;10.60;;;;;;;23.41;70.04;99841.22;1668650;84;21011;-81
2021/07/29 01:36:45;;;;;;;11.63;10.48;;;;;;;23.56;69.28;99847.87;1669051;83;21173;-80
2021/07/29 01:39:11;;;;;;;21.55;12.98;;;;;;;23.69;68.68;99847.75;1671302;85;21098;-81
2021/07/29 01:41:37;;;;;;;18.57;12.45;;;;;;;23.79;68.12;99846.34;1630174;86;21029;-80
2021/07/29 01:44:05;;;;;;;15.80;12.35;;;;;;;23.80;67.58;99841.14;1647904;85;21146;-79
2021/07/29 01:46:31;;;;;;;20.43;14.25;;;;;;;23.60;67.72;99841.31;1677089;84;21095;-80
2021/07/29 01:48:58;;;;;;;17.90;13.48;;;;;;;23.36;68.49;99840.73;1674515;84;21071;-82
2021/07/29 01:51:24;;;;;;;13.50;11.95;;;;;;;23.17;68.98;99856.09;1673880;84;21138;-80
2021/07/29 01:55:43;;;;;;;22.65;14.15;;;;;;;23.06;69.94;99852.11;1797399;78;22896;-79
2021/07/29 01:58:11;;;;;;;16.87;13.18;;;;;;;22.89;70.53;99848.95;1719666;82;21014;-79
2021/07/29 02:00:41;;;;;;;14.20;11.70;;;;;;;22.76;71.33;99854.46;1727369;80;21065;-80
2021/07/29 02:03:08;;;;;;;22.25;13.05;;;;;;;22.69;71.87;99853.95;1744014;80;21047;-80
2021/07/29 02:05:34;;;;;;;14.15;12.00;;;;;;;22.70;72.16;99853.69;1760626;81;20990;-79
2021/07/29 02:08:01;;;;;;;13.20;11.85;;;;;;;22.72;72.20;99856.92;1757200;81;21018;-80
2021/07/29 02:10:28;;;;;;;16.00;12.25;;;;;;;22.71;72.18;99851.22;1761322;80;21018;-80
2021/07/29 02:12:55;;;;;;;22.77;12.20;;;;;;;22.70;72.36;99858.31;1736235;81;21009;-80
2021/07/29 02:15:22;;;;;;;13.72;12.25;;;;;;;22.70;72.36;99859.67;1739202;81;20993;-81
2021/07/29 02:17:49;;;;;;;25.55;14.55;;;;;;;22.66;72.33;99863.49;1736519;81;21076;-81
2021/07/29 02:20:15;;;;;;;19.85;13.30;;;;;;;22.62;72.51;99861.59;1727935;81;21055;-80
2021/07/29 02:22:42;;;;;;;13.80;12.07;;;;;;;22.59;72.60;99856.19;1724978;81;21013;-79
2021/07/29 02:25:12;;;;;;;18.90;14.25;;;;;;;22.60;72.75;99863.23;1732324;81;21077;-80
2021/07/29 02:27:38;;;;;;;26.25;12.10;;;;;;;22.64;72.23;99858.89;1716294;81;21080;-80
2021/07/29 02:30:05;;;;;;;12.68;10.95;;;;;;;22.71;72.68;99858.00;1726440;81;21542;-79
2021/07/29 02:32:31;;;;;;;16.40;13.10;;;;;;;22.81;72.72;99858.52;1729671;81;21563;-80
2021/07/29 02:34:57;;;;;;;17.23;12.40;;;;;;;22.89;71.80;99842.96;1728595;81;21063;-80
2021/07/29 02:37:24;;;;;;;15.60;11.97;;;;;;;22.93;72.05;99845.38;1731884;81;21483;-80
2021/07/29 02:39:51;;;;;;;21.37;13.55;;;;;;;22.98;71.59;99849.98;1728942;81;20974;-80
2021/07/29 02:42:17;;;;;;;15.35;12.33;;;;;;;22.94;71.42;99840.22;1730093;81;21489;-81
2021/07/29 02:44:44;;;;;;;14.78;13.28;;;;;;;22.91;71.35;99842.13;1747736;81;20998;-80
2021/07/29 02:47:10;;;;;;;18.80;14.05;;;;;;;22.85;71.08;99831.04;1733818;81;21028;-81
2021/07/29 02:49:36;;;;;;;15.08;13.18;;;;;;;22.84;70.69;99836.75;1703737;81;21048;-80
2021/07/29 02:52:04;;;;;;;21.40;15.10;;;;;;;22.88;70.09;99826.94;1729930;81;21007;-80
2021/07/29 02:54:30;;;;;;;19.85;13.18;;;;;;;22.92;69.65;99826.10;1712031;81;22154;-80
2021/07/29 02:56:58;;;;;;;18.30;13.60;;;;;;;22.99;70.67;99824.41;1674258;83;21601;-80
2021/07/29 02:59:25;;;;;;;16.42;12.47;;;;;;;23.04;70.90;99824.41;1687370;83;21021;-80
2021/07/29 03:01:51;;;;;;;16.87;12.55;;;;;;;23.11;71.04;99824.91;1695674;83;21572;-80
2021/07/29 03:04:17;;;;;;;22.17;12.47;;;;;;;23.16;70.94;99819.16;1689590;83;21101;-80
2021/07/29 03:06:43;;;;;;;15.48;12.13;;;;;;;23.24;70.98;99821.25;1693678;83;21097;-79
2021/07/29 03:09:12;;;;;;;18.77;12.33;;;;;;;23.43;70.48;99819.98;1702529;83;21069;-79
2021/07/29 03:11:37;;;;;;;17.62;12.23;;;;;;;23.69;69.79;99820.55;1690135;83;20994;-80
2021/07/29 03:14:05;;;;;;;23.62;15.83;;;;;;;23.99;68.38;99807.17;1677386;83;21129;-80
2021/07/29 03:16:31;;;;;;;22.35;15.10;;;;;;;24.29;67.09;99805.97;1676122;84;21608;-79
2021/07/29 03:19:01;;;;;;;19.48;14.20;;;;;;;24.65;65.74;99806.86;1676392;83;21522;-81
2021/07/29 03:21:28;;;;;;;21.57;14.43;;;;;;;25.03;63.82;99808.74;1677495;84;21491;-81
2021/07/29 03:23:55;;;;;;;18.55;14.55;;;;;;;25.34;62.83;99808.27;1658263;84;21044;-82
2021/07/29 03:26:21;;;;;;;21.40;15.15;;;;;;;25.55;61.32;99805.98;1663921;84;21041;-82
2021/07/29 03:28:47;;;;;;;17.27;13.58;;;;;;;25.72;60.42;99805.39;1654063;84;21072;-79
2021/07/29 03:31:14;;;;;;;21.02;14.35;;;;;;;25.94;59.59;99804.16;1666272;84;21092;-81
2021/07/29 03:33:40;;;;;;;22.35;14.95;;;;;;;26.18;58.80;99801.21;1671162;83;21117;-80
2021/07/29 03:36:06;;;;;;;16.85;13.83;;;;;;;26.42;58.08;99802.30;1693909;83;21649;-81
2021/07/29 03:38:32;;;;;;;18.92;13.93;;;;;;;26.66;57.43;99805.38;1681781;83;21597;-79
2021/07/29 03:40:58;;;;;;;24.50;13.93;;;;;;;26.88;56.72;99811.42;1695492;83;21041;-80
2021/07/29 03:43:25;;;;;;;21.45;13.88;;;;;;;27.04;56.59;99805.58;1695829;83;21093;-81
2021/07/29 03:45:51;;;;;;;23.60;14.40;;;;;;;27.16;56.19;99801.70;1655949;84;21088;-81
2021/07/29 03:48:18;;;;;;;16.80;13.88;;;;;;;27.28;55.56;99800.61;1646243;85;21078;-81
2021/07/29 03:50:44;;;;;;;14.73;13.38;;;;;;;27.45;54.75;99794.42;1648789;85;21015;-81
2021/07/29 03:53:10;;;;;;;15.65;14.18;;;;;;;27.64;53.59;99791.44;1638981;86;21090;-88
2021/07/29 03:55:38;;;;;;;15.58;12.80;;;;;;;27.82;52.79;99796.97;1658908;84;21141;-86
2021/07/29 03:58:04;;;;;;;19.55;13.83;;;;;;;28.01;53.39;99796.20;1672455;84;20997;-80
2021/07/29 04:00:30;;;;;;;24.50;12.78;;;;;;;28.02;52.24;99788.20;1678355;82;21097;-80
2021/07/29 04:02:56;;;;;;;15.55;13.35;;;;;;;27.92;52.35;99790.68;1717995;81;21446;-80
2021/07/29 04:05:22;;;;;;;23.52;13.45;;;;;;;27.95;52.59;99788.69;1724366;81;21628;-81
2021/07/29 04:07:48;;;;;;;26.85;13.65;;;;;;;27.92;52.59;99790.68;1728502;81;21563;-81
2021/07/29 04:10:14;;;;;;;16.02;12.85;;;;;;;28.02;52.10;99789.58;1728933;81;21476;-80
2021/07/29 04:12:40;;;;;;;17.62;13.40;;;;;;;28.22;51.45;99784.61;1686601;81;21030;-81
2021/07/29 04:15:07;;;;;;;19.10;12.90;;;;;;;28.45;51.10;99781.19;1668462;84;21072;-80
2021/07/29 04:17:33;;;;;;;13.18;11.80;;;;;;;28.70;50.21;99781.77;1659303;84;21489;-79
2021/07/29 04:19:59;;;;;;;14.38;11.70;;;;;;;28.96;50.24;99776.03;1672401;85;21023;-77
2021/07/29 04:22:26;;;;;;;13.32;11.88;;;;;;;29.21;49.40;99777.92;1670982;84;21185;-78
2021/07/29 04:24:55;;;;;;;21.95;12.50;;;;;;;29.37;48.74;99778.21;1722578;82;21498;-78
2021/07/29 04:27:21;;;;;;;12.53;11.18;;;;;;;29.28;48.36;99778.23;1720995;82;21006;-77
2021/07/29 04:29:50;;;;;;;20.17;12.37;;;;;;;29.01;48.97;99781.32;1710447;83;21089;-79
2021/07/29 04:32:16;;;;;;;16.80;12.03;;;;;;;28.82;49.66;99783.05;1703094;82;20967;-80
2021/07/29 04:34:43;;;;;;;21.85;12.23;;;;;;;28.82;49.97;99781.13;1680917;84;21066;-78
2021/07/29 04:37:10;;;;;;;20.90;11.65;;;;;;;28.98;49.35;99775.13;1677805;84;21107;-76
2021/07/29 04:39:41;;;;;;;15.55;11.78;;;;;;;29.23;48.91;99780.34;1733244;81;21130;-75
2021/07/29 04:42:09;;;;;;;15.15;11.43;;;;;;;29.53;48.03;99779.83;1731263;81;22140;-76
2021/07/29 04:44:38;;;;;;;15.10;11.83;;;;;;;29.82;47.48;99787.34;1726877;81;21103;-75
2021/07/29 04:47:15;;;;;;;13.93;11.95;;;;;;;30.02;45.82;99783.58;1711558;82;21024;-75
2021/07/29 04:49:41;;;;;;;18.40;10.95;;;;;;;30.26;45.38;99787.87;1716490;82;21078;-77
2021/07/29 04:52:07;;;;;;;17.85;11.43;;;;;;;30.50;45.79;99780.95;1711229;82;20985;-75
2021/07/29 04:54:41;;;;;;;14.63;11.50;;;;;;;30.72;44.69;99782.52;1713756;82;21326;-79
2021/07/29 04:57:09;;;;;;;;;;;;;;;30.86;44.70;99770.66;1721716;82;21028;-76
2021/07/29 04:59:41;;;;;;;14.53;11.65;;;;;;;31.03;45.32;99782.67;1719194;82;20146;-68
2021/07/29 05:02:07;;;;;;;17.07;12.18;;;;;;;31.12;44.63;99782.02;1720237;82;21054;-67
2021/07/29 05:04:34;;;;;;;13.18;11.95;;;;;;;31.30;44.11;99777.69;1721792;82;21022;-66
2021/07/29 05:07:04;;;;;;;11.83;10.00;;;;;;;31.43;44.22;99772.42;1716012;83;21128;-67
2021/07/29 05:09:34;;;;;;;16.30;11.38;;;;;;;31.57;44.01;99777.06;1725662;82;21049;-67
2021/07/29 05:11:58;;;;;;;17.57;11.73;;;;;;;31.66;43.69;99772.02;1719760;82;21041;-67
2021/07/29 05:14:24;;;;;;;22.60;12.70;;;;;;;31.66;43.52;99770.05;1730589;82;21013;-68
2021/07/29 05:16:50;;;;;;;14.85;11.28;;;;;;;31.44;43.99;99768.54;1718305;82;21068;-76
2021/07/29 05:19:17;;;;;;;13.15;10.60;;;;;;;31.13;44.25;99774.55;1725710;82;21007;-76
2021/07/29 05:21:47;;;;;;;14.47;11.20;;;;;;;30.78;46.09;99777.06;1721061;82;21599;-78
2021/07/29 05:24:14;;;;;;;15.10;11.08;;;;;;;30.49;46.13;99767.52;1677491;81;21086;-77
2021/07/29 05:26:50;;;;;;;14.83;10.40;;;;;;;30.16;46.38;99766.28;1706206;82;21045;-76
2021/07/29 05:29:20;;;;;;;14.78;10.32;;;;;;;29.84;47.04;99765.03;1710756;82;21006;-78
2021/07/29 05:31:46;;;;;;;12.30;10.55;;;;;;;29.43;48.05;99745.89;1708710;82;21026;-79
2021/07/29 05:34:12;;;;;;;15.70;11.38;;;;;;;29.36;48.47;99762.86;1717018;82;21589;-75
2021/07/29 05:36:39;;;;;;;18.42;12.05;;;;;;;29.23;48.62;99766.63;1717882;82;20993;-77
2021/07/29 05:39:09;;;;;;;14.70;11.28;;;;;;;29.10;48.76;99765.11;1716270;82;21079;-79
2021/07/29 05:41:36;;;;;;;14.93;11.08;;;;;;;28.96;48.96;99766.42;1724246;82;21009;-78
2021/07/29 05:44:07;;;;;;;24.95;12.85;;;;;;;28.97;49.42;99757.87;1722210;82;21979;-76
2021/07/29 05:46:33;;;;;;;18.82;12.80;;;;;;;29.14;49.43;99750.74;1720347;82;21164;-78
2021/07/29 05:48:59;;;;;;;18.48;11.85;;;;;;;29.30;48.75;99755.95;1719586;82;21113;-78
2021/07/29 05:51:27;;;;;;;11.85;10.30;;;;;;;29.46;47.47;99761.69;1721120;82;22097;-79
2021/07/29 05:53:53;;;;;;;11.97;10.70;;;;;;;29.68;47.64;99747.70;1721256;83;21096;-77
2021/07/29 05:56:23;;;;;;;10.48;9.13;;;;;;;30.09;46.09;99754.44;1716485;82;21583;-78
2021/07/29 05:59:07;;;;;;;17.20;9.85;;;;;;;30.43;45.29;99751.22;1711514;83;21049;-79
2021/07/29 06:01:42;;;;;;;11.83;8.68;;;;;;;30.77;44.26;99750.68;1633790;85;21021;-79
2021/07/29 06:04:08;;;;;;;9.25;7.15;;;;;;;31.11;43.18;99751.49;1646355;85;21410;-80
2021/07/29 06:07:05;;;;;;;9.28;8.08;;;;;;;31.38;42.20;99750.06;1635754;84;21158;-76
2021/07/29 06:09:34;;;;;;;11.45;7.30;;;;;;;31.66;41.65;99749.97;1618380;87;21015;-78
2021/07/29 06:12:00;;;;;;;10.15;7.28;;;;;;;31.88;40.91;99750.88;1622822;87;21001;-78
2021/07/29 06:14:26;;;;;;;11.88;8.28;;;;;;;31.90;40.18;99755.47;1614871;88;21839;-76
2021/07/29 06:16:57;;;;;;;16.02;9.48;;;;;;;31.97;40.09;99750.18;1627901;87;20995;-78
2021/07/29 06:19:29;;;;;;;14.58;8.60;;;;;;;32.10;39.62;99750.17;1625061;87;20990;-76
2021/07/29 06:21:58;;;;;;;32.40;14.10;;;;;;;32.22;39.53;99739.12;1625899;88;21009;-77
2021/07/29 06:24:27;;;;;;;14.93;8.00;;;;;;;32.47;38.44;99732.16;1663565;85;21014;-76
2021/07/29 06:26:58;;;;;;;16.97;8.23;;;;;;;32.57;36.23;99722.05;1669101;84;21049;-77
2021/07/29 06:29:23;;;;;;;24.05;10.98;;;;;;;32.49;36.96;99723.74;1642277;86;21006;-77
2021/07/29 06:31:49;;;;;;;59.63;18.48;;;;;;;32.43;37.66;99716.09;1670431;84;21461;-75
2021/07/29 06:34:15;;;;;;;36.15;15.58;;;;;;;32.27;36.95;99716.84;1667329;84;21064;-76
2021/07/29 06:36:42;;;;;;;59.25;17.37;;;;;;;32.13;37.08;99715.03;1615804;87;21015;-78
2021/07/29 06:39:10;;;;;;;29.07;14.10;;;;;;;31.79;37.06;99723.44;1615689;87;21536;-79
2021/07/29 06:41:40;;;;;;;15.95;7.50;;;;;;;31.42;38.16;99725.40;1609189;89;21055;-79
2021/07/29 06:44:08;;;;;;;6.17;5.50;;;;;;;31.07;38.82;99723.05;1641864;86;21062;-76
2021/07/29 06:46:37;;;;;;;6.25;5.60;;;;;;;30.78;38.79;99727.55;1640272;86;21081;-77
2021/07/29 06:49:09;;;;;;;13.28;7.25;;;;;;;30.55;40.01;99724.34;1641298;86;21096;-76
2021/07/29 06:51:36;;;;;;;13.50;7.47;;;;;;;30.42;40.19;99724.06;1633890;86;21892;-78
2021/07/29 06:54:04;;;;;;;11.22;7.37;;;;;;;30.28;40.61;99725.69;1649535;86;21573;-78
2021/07/29 06:56:31;;;;;;;15.85;8.48;;;;;;;30.09;41.93;99729.70;1634551;84;20989;-78
2021/07/29 06:58:59;;;;;;;9.78;6.65;;;;;;;29.94;41.60;99733.05;1665662;84;21045;-77
2021/07/29 07:01:26;;;;;;;26.30;11.43;;;;;;;29.86;41.95;99726.47;1669365;84;21025;-77
2021/07/29 07:03:53;;;;;;;19.75;9.55;;;;;;;29.78;42.64;99725.97;1668010;84;21073;-77
2021/07/29 07:06:20;;;;;;;14.95;8.30;;;;;;;29.76;42.40;99722.75;1673430;84;21081;-78
2021/07/29 07:08:47;;;;;;;16.65;7.50;;;;;;;29.80;42.71;99715.45;1689434;83;20983;-77
2021/07/29 07:11:16;;;;;;;12.40;5.97;;;;;;;30.01;42.61;99720.97;1692666;83;21546;-79
2021/07/29 07:13:48;;;;;;;13.85;7.10;;;;;;;30.10;42.22;99714.02;1692713;83;21528;-77
2021/07/29 07:16:15;;;;;;;22.62;11.95;;;;;;;30.23;42.00;99720.39;1693116;83;21018;-77
2021/07/29 07:18:46;;;;;;;28.45;11.75;;;;;;;30.32;41.14;99725.83;1690907;83;21005;-79
2021/07/29 07:21:13;;;;;;;11.43;7.58;;;;;;;30.45;41.53;99718.69;1692987;83;21055;-76
2021/07/29 07:23:42;;;;;;;10.05;6.70;;;;;;;30.69;40.66;99725.45;1684368;83;20994;-77
2021/07/29 07:26:22;;;;;;;32.67;15.15;;;;;;;30.89;40.66;99716.09;1679444;83;21542;-77
2021/07/29 07:28:50;;;;;;;25.45;11.68;;;;;;;31.15;40.65;99718.01;1691042;83;21018;-81
2021/07/29 07:31:17;;;;;;;13.48;7.72;;;;;;;31.44;40.89;99707.95;1690694;83;21014;-68
2021/07/29 07:33:45;;;;;;;7.58;6.85;;;;;;;31.74;39.51;99711.84;1691936;83;21549;-65
2021/07/29 07:36:11;;;;;;;7.65;6.30;;;;;;;31.78;39.00;99706.69;1690477;83;20998;-66
2021/07/29 07:38:39;;;;;;;6.10;5.60;;;;;;;31.74;39.13;99699.45;1694884;83;21108;-66
2021/07/29 07:41:07;;;;;;;12.65;6.35;;;;;;;31.77;39.30;99705.66;1696871;83;20976;-66
2021/07/29 07:43:34;;;;;;;11.63;6.45;;;;;;;31.84;39.27;99697.62;1692590;83;21193;-65
2021/07/29 07:46:02;;;;;;;8.85;6.20;;;;;;;31.84;39.23;99698.99;1694926;83;20991;-66
2021/07/29 07:48:28;;;;;;;5.37;4.92;;;;;;;31.86;39.60;99688.42;1685525;83;21500;-65
2021/07/29 07:50:55;;;;;;;5.83;5.28;;;;;;;31.85;38.88;99697.83;1677898;83;21471;-66
2021/07/29 07:53:25;;;;;;;7.72;5.12;;;;;;;31.84;38.76;99692.11;1687622;83;21088;-67
2021/07/29 07:55:59;;;;;;;6.40;5.75;;;;;;;31.76;39.00;99694.39;1688004;83;21022;-66
2021/07/29 07:58:25;;;;;;;5.78;5.30;;;;;;;31.74;39.71;99693.39;1687430;83;21014;-66
2021/07/29 08:00:51;;;;;;;5.90;5.42;;;;;;;31.78;39.24;99694.88;1680948;83;21073;-66
2021/07/29 08:03:17;;;;;;;6.20;5.60;;;;;;;31.76;39.23;99699.91;1686448;83;20983;-66
2021/07/29 08:05:43;;;;;;;6.05;5.45;;;;;;;31.80;39.12;99692.58;1684029;83;21608;-66
2021/07/29 08:08:09;;;;;;;6.65;5.37;;;;;;;31.85;39.03;99695.07;1671918;83;20977;-65
2021/07/29 08:10:37;;;;;;;5.28;4.75;;;;;;;31.91;38.97;99689.57;1656392;83;21056;-66
2021/07/29 08:13:05;;;;;;;6.17;5.65;;;;;;;31.85;38.87;99691.52;1675369;83;21105;-66
2021/07/29 08:15:34;;;;;;;4.62;4.33;;;;;;;31.77;39.37;99684.99;1673241;83;21576;-65
2021/07/29 08:18:00;;;;;;;6.00;4.72;;;;;;;31.75;39.07;99687.30;1664410;83;20998;-65
2021/07/29 08:20:28;;;;;;;4.92;4.25;;;;;;;31.74;38.90;99688.44;1675649;83;21073;-66
2021/07/29 08:22:56;;;;;;;6.17;4.58;;;;;;;31.58;39.20;99687.77;1689294;82;21104;-66
2021/07/29 08:25:23;;;;;;;5.15;4.47;;;;;;;31.46;40.11;99689.69;1718096;82;21002;-68
2021/07/29 08:27:53;;;;;;;4.90;4.50;;;;;;;31.34;40.45;99684.99;1716271;82;21016;-66
2021/07/29 08:30:20;;;;;;;6.35;4.78;;;;;;;31.19;40.49;99683.17;1712599;82;20974;-65
2021/07/29 08:32:47;;;;;;;5.17;4.70;;;;;;;31.14;41.29;99682.59;1710967;82;21154;-66
2021/07/29 08:35:14;;;;;;;4.78;4.15;;;;;;;31.08;41.46;99664.67;1711361;82;20995;-67
2021/07/29 08:37:46;;;;;;;5.35;4.83;;;;;;;31.25;41.39;99678.24;1675208;84;21019;-66
2021/07/29 08:40:17;;;;;;;8.93;5.53;;;;;;;31.34;41.46;99677.53;1679377;83;20985;-66
2021/07/29 08:42:48;;;;;;;13.30;5.10;;;;;;;31.38;41.72;99681.78;1670944;83;21541;-66
2021/07/29 08:45:15;;;;;;;4.65;4.35;;;;;;;31.36;41.25;99678.56;1681992;84;20976;-66
2021/07/29 08:47:44;;;;;;;5.00;4.60;;;;;;;31.31;41.30;99678.23;1680642;83;21014;-66
2021/07/29 08:50:13;;;;;;;6.40;4.58;;;;;;;31.32;41.56;99668.81;1655116;83;21569;-66
2021/07/29 08:52:39;;;;;;;8.28;5.00;;;;;;;31.37;41.63;99674.09;1679963;84;20983;-66
2021/07/29 08:55:06;;;;;;;5.67;5.12;;;;;;;31.24;41.92;99670.53;1691416;83;20979;-67
2021/07/29 08:57:34;;;;;;;19.92;6.42;;;;;;;31.14;42.24;99661.37;1683641;84;21034;-67
2021/07/29 09:00:06;;;;;;;6.42;5.22;;;;;;;31.07;42.11;99670.76;1681938;83;21097;-65
2021/07/29 09:02:32;;;;;;;6.20;4.85;;;;;;;31.04;42.98;99661.80;1678244;84;21474;-67
2021/07/29 09:06:06;;;;;;;;;;;;;;;;;;;;;
2021/07/29 09:08:22;;;;;;;13.93;6.22;;;;;;;31.02;42.70;99665.47;1654829;84;21077;-67
2021/07/29 09:14:13;;;;;;;7.08;6.37;;;;;;;31.10;43.32;99663.20;1566949;88;21120;-65
2021/07/29 09:18:11;;;;;;;7.08;6.47;;;;;;;31.13;43.84;99657.00;1627394;87;21044;-70
2021/07/29 09:20:45;;;;;;;;;;;;;;;;;;;;;
2021/07/29 09:27:44;;;;;;;7.70;6.80;;;;;;;31.03;44.21;99647.83;1547707;92;21156;-67
2021/07/29 09:30:19;;;;;;;6.90;6.37;;;;;;;31.20;44.25;99631.66;1561211;92;21069;-65
2021/07/29 09:33:12;;;;;;;11.57;7.03;;;;;;;31.39;44.56;99633.83;1637215;85;21667;-69
2021/07/29 09:35:53;;;;;;;7.85;6.60;;;;;;;31.50;43.84;99631.45;1625232;87;21061;-67
2021/07/29 09:38:51;;;;;;;9.30;7.37;;;;;;;31.50;44.48;99632.25;1616719;86;21055;-67
2021/07/29 09:41:31;;;;;;;7.00;6.40;;;;;;;31.48;43.94;99617.23;1660980;85;20994;-67
2021/07/29 09:44:14;;;;;;;8.10;6.58;;;;;;;31.41;44.57;99624.06;1656501;85;21061;-68
2021/07/29 09:46:42;;;;;;;7.83;6.42;;;;;;;31.46;45.06;99616.16;1653044;85;21540;-67
2021/07/29 09:49:10;;;;;;;7.05;6.03;;;;;;;31.62;44.93;99609.38;1669543;85;20990;-67
2021/07/29 09:51:39;;;;;;;15.98;7.00;;;;;;;31.84;44.98;99611.41;1698728;83;21531;-72
2021/07/29 09:54:07;;;;;;;11.03;6.70;;;;;;;31.96;44.35;99604.45;1697639;83;21087;-66
2021/07/29 09:56:34;;;;;;;8.68;6.33;;;;;;;31.92;43.82;99605.73;1695599;83;21515;-68
2021/07/29 09:59:02;;;;;;;12.98;7.65;;;;;;;31.94;44.00;99607.56;1698941;83;21935;-68
2021/07/29 10:01:30;;;;;;;11.57;6.58;;;;;;;31.96;43.80;99605.25;1702042;83;21822;-69
2021/07/29 10:03:59;;;;;;;14.93;6.15;;;;;;;31.96;43.27;99608.59;1695465;83;21131;-66
2021/07/29 10:06:32;;;;;;;16.32;6.40;;;;;;;31.85;43.23;99611.03;1698806;83;21063;-67
2021/07/29 10:09:03;;;;;;;11.10;6.30;;;;;;;31.75;43.69;99607.41;1698042;83;21602;-69
2021/07/29 10:11:32;;;;;;;9.45;5.92;;;;;;;31.73;43.86;99603.61;1698997;83;21496;-68
2021/07/29 10:13:59;;;;;;;11.70;5.75;;;;;;;31.69;43.32;99607.42;1695374;83;21038;-65
2021/07/29 10:16:47;;;;;;;9.75;5.50;;;;;;;31.70;42.16;99604.30;1693320;83;21106;-66
2021/07/29 10:19:14;;;;;;;8.83;6.55;;;;;;;31.69;41.71;99610.18;1695527;83;21019;-66
2021/07/29 10:21:43;;;;;;;9.18;6.15;;;;;;;31.72;42.97;99603.41;1697794;83;21031;-67
2021/07/29 10:24:12;;;;;;;8.08;6.00;;;;;;;31.83;42.24;99607.83;1699824;83;21512;-68
2021/07/29 10:27:08;;;;;;;6.80;5.47;;;;;;;31.89;42.26;99595.43;1695716;83;21019;-66
2021/07/29 10:29:34;;;;;;;12.83;5.93;;;;;;;31.99;40.52;99601.02;1696388;83;21119;-66
2021/07/29 10:32:08;;;;;;;7.22;4.20;;;;;;;32.05;41.08;99598.84;1697477;83;21003;-73
2021/07/29 10:34:33;;;;;;;7.75;5.25;;;;;;;31.99;39.74;99591.36;1695027;83;21008;-66
2021/07/29 10:37:06;;;;;;;6.53;4.40;;;;;;;32.00;40.35;99595.16;1689417;83;21519;-66
2021/07/29 10:39:39;;;;;;;11.30;5.97;;;;;;;32.04;39.88;99587.58;1692488;83;21632;-69
2021/07/29 10:42:06;;;;;;;8.10;5.25;;;;;;;31.97;40.24;99588.16;1683801;83;21099;-68
2021/07/29 10:44:38;;;;;;;7.83;4.70;;;;;;;31.88;40.84;99579.23;1695071;83;21027;-68
2021/07/29 10:47:06;;;;;;;8.78;5.17;;;;;;;31.86;41.29;99573.28;1690614;83;21051;-67
2021/07/29 10:50:02;;;;;;;7.65;5.20;;;;;;;31.95;40.63;99576.11;1690007;83;21126;-67
2021/07/29 10:52:29;;;;;;;8.00;4.37;;;;;;;32.11;40.35;99576.75;1700929;83;21530;-68
2021/07/29 10:54:56;;;;;;;7.50;5.10;;;;;;;32.19;38.67;99566.95;1699422;83;21067;-67
2021/07/29 10:57:24;;;;;;;14.13;4.25;;;;;;;32.16;38.35;99569.61;1682998;83;21027;-66
2021/07/29 10:59:51;;;;;;;9.05;3.80;;;;;;;32.15;37.31;99576.27;1690003;83;21050;-68
2021/07/29 11:02:42;;;;;;;12.65;4.53;;;;;;;32.18;37.41;99567.30;1706906;83;21015;-67
2021/07/29 11:05:08;;;;;;;8.13;4.10;;;;;;;32.25;38.02;99572.19;1680993;83;21135;-67
2021/07/29 11:07:33;;;;;;;9.70;4.40;;;;;;;32.34;37.99;99565.38;1680017;83;21018;-68
2021/07/29 11:10:06;;;;;;;7.78;3.98;;;;;;;32.40;37.94;99572.23;1685406;84;21061;-65
2021/07/29 11:12:35;;;;;;;6.15;4.12;;;;;;;32.45;38.15;99565.64;1680025;83;21122;-67
2021/07/29 11:15:07;;;;;;;6.92;4.08;;;;;;;32.51;38.13;99562.86;1680753;83;21040;-66
2021/07/29 11:17:33;;;;;;;10.08;4.08;;;;;;;32.53;37.82;99561.10;1672613;84;21029;-66
2021/07/29 11:19:59;;;;;;;6.37;3.10;;;;;;;32.47;35.69;99557.02;1685857;83;21039;-67
2021/07/29 11:22:25;;;;;;;9.38;3.30;;;;;;;32.44;35.73;99554.95;1652887;85;21089;-67
2021/07/29 11:24:53;;;;;;;5.58;2.60;;;;;;;32.46;35.30;99555.43;1678364;84;20950;-69
2021/07/29 11:27:31;;;;;;;11.95;3.55;;;;;;;32.48;34.58;99557.25;1679628;84;21510;-67
2021/07/29 11:30:00;;;;;;;6.03;2.58;;;;;;;32.50;34.70;99559.08;1676996;84;20974;-67
2021/07/29 11:32:38;;;;;;;12.45;3.72;;;;;;;32.45;34.19;99544.95;1679452;83;21641;-67
2021/07/29 11:35:09;;;;;;;5.28;2.85;;;;;;;32.34;34.20;99535.61;1677487;84;20994;-67
2021/07/29 11:37:40;;;;;;;9.30;3.08;;;;;;;32.30;34.84;99532.75;1696361;83;20992;-67
2021/07/29 11:40:18;;;;;;;4.95;2.67;;;;;;;32.33;34.68;99527.13;1676819;84;21005;-66
2021/07/29 11:42:44;;;;;;;5.25;3.17;;;;;;;32.38;33.88;99517.19;1680206;85;21093;-68
2021/07/29 11:45:23;;;;;;;3.75;2.60;;;;;;;32.46;34.07;99507.96;1680597;84;21061;-68
2021/07/29 11:47:49;;;;;;;6.72;2.70;;;;;;;32.43;34.09;99481.67;1701664;83;21513;-66